createdAt,value
2019-02-05T00:00:54.323Z,6.40
2019-02-05T00:01:54.329Z,6.20
2019-02-05T00:02:54.346Z,6.10
2019-02-05T00:03:54.452Z,6.40
2019-02-05T00:04:54.374Z,6.00
2019-02-05T00:05:54.384Z,6.90
2019-02-05T00:06:54.408Z,6.20
2019-02-05T00:07:54.415Z,6.20
2019-02-05T00:08:54.432Z,6.60
2019-02-05T00:09:54.444Z,5.50
2019-02-05T00:10:54.457Z,6.20
2019-02-05T00:11:54.475Z,6.30
2019-02-05T00:12:54.488Z,6.60
2019-02-05T00:13:54.496Z,6.10
2019-02-05T00:14:54.510Z,7.40
2019-02-05T00:15:54.689Z,6.90
2019-02-05T00:16:54.540Z,7.10
2019-02-05T00:17:54.553Z,6.30
2019-02-05T00:18:54.569Z,7.00
2019-02-05T00:19:54.583Z,6.30
2019-02-05T00:20:54.593Z,6.00
2019-02-05T00:21:54.609Z,5.70
2019-02-05T00:22:54.624Z,6.60
2019-02-05T00:23:54.638Z,6.10
2019-02-05T00:24:54.727Z,6.20
2019-02-05T00:26:05.612Z,6.70
2019-02-05T00:26:54.758Z,6.60
2019-02-05T00:27:54.694Z,6.60
2019-02-05T00:28:54.706Z,6.90
2019-02-05T00:29:54.722Z,7.00
2019-02-05T00:30:54.743Z,6.80
2019-02-05T00:31:54.749Z,7.00
2019-02-05T00:32:54.762Z,8.30
2019-02-05T00:33:54.776Z,8.60
2019-02-05T00:34:54.792Z,7.40
2019-02-05T00:35:54.802Z,7.30
2019-02-05T00:36:54.816Z,8.00
2019-02-05T00:37:54.831Z,8.50
2019-02-05T00:38:54.844Z,7.10
2019-02-05T00:39:54.861Z,7.70
2019-02-05T00:40:54.873Z,7.60
2019-02-05T00:41:54.888Z,8.80
2019-02-05T00:42:54.900Z,7.80
2019-02-05T00:43:54.913Z,8.40
2019-02-05T00:44:54.926Z,8.90
2019-02-05T00:45:54.942Z,7.90
2019-02-05T00:46:54.957Z,8.00
2019-02-05T00:47:54.969Z,8.90
2019-02-05T00:48:54.985Z,8.50
2019-02-05T00:49:54.997Z,7.30
2019-02-05T00:50:55.010Z,8.70
2019-02-05T00:51:55.024Z,9.00
2019-02-05T00:52:55.036Z,9.40
2019-02-05T00:53:55.053Z,8.80
2019-02-05T00:54:55.067Z,9.80
2019-02-05T00:55:55.082Z,8.70
2019-02-05T00:56:55.098Z,8.70
2019-02-05T00:57:55.105Z,8.50
2019-02-05T00:58:55.122Z,9.30
2019-02-05T00:59:55.134Z,9.80
2019-02-05T01:00:55.146Z,8.20
2019-02-05T01:01:55.162Z,9.50
2019-02-05T01:02:55.176Z,9.00
2019-02-05T01:03:55.189Z,8.20
2019-02-05T01:04:55.203Z,9.40
2019-02-05T01:05:55.215Z,9.00
2019-02-05T01:06:55.231Z,10.10
2019-02-05T01:07:55.243Z,9.70
2019-02-05T01:08:55.257Z,9.90
2019-02-05T01:09:55.272Z,9.80
2019-02-05T01:10:55.295Z,10.20
2019-02-05T01:11:55.300Z,10.20
2019-02-05T01:12:55.310Z,10.60
2019-02-05T01:13:55.324Z,10.30
2019-02-05T01:14:55.341Z,9.90
2019-02-05T01:15:55.361Z,10.50
2019-02-05T01:16:55.374Z,10.10
2019-02-05T01:17:55.378Z,10.20
2019-02-05T01:18:55.398Z,9.90
2019-02-05T01:19:55.566Z,11.10
2019-02-05T01:20:55.422Z,10.50
2019-02-05T01:21:55.442Z,10.90
2019-02-05T01:22:55.447Z,10.80
2019-02-05T01:23:55.464Z,11.20
2019-02-05T01:24:55.476Z,10.40
2019-02-05T01:25:55.488Z,11.70
2019-02-05T01:26:55.505Z,10.50
2019-02-05T01:27:55.518Z,11.40
2019-02-05T01:28:55.538Z,11.00
2019-02-05T01:29:55.545Z,10.90
2019-02-05T01:30:55.569Z,11.10
2019-02-05T01:31:55.582Z,11.10
2019-02-05T01:32:55.585Z,10.20
2019-02-05T01:33:55.606Z,10.70
2019-02-05T01:34:55.611Z,12.10
2019-02-05T01:35:55.631Z,11.40
2019-02-05T01:36:55.639Z,11.40
2019-02-05T01:37:55.651Z,11.90
2019-02-05T01:38:55.668Z,11.60
2019-02-05T01:39:55.682Z,11.30
2019-02-05T01:40:55.692Z,11.70
2019-02-05T01:41:55.706Z,11.70
2019-02-05T01:42:55.721Z,12.00
2019-02-05T01:43:55.742Z,12.00
2019-02-05T01:44:55.748Z,11.90
2019-02-05T01:45:55.770Z,12.20
2019-02-05T01:46:55.774Z,12.00
2019-02-05T01:47:55.795Z,12.80
2019-02-05T01:48:55.810Z,13.00
2019-02-05T01:49:55.814Z,13.80
2019-02-05T01:50:55.835Z,11.90
2019-02-05T01:51:55.844Z,11.90
2019-02-05T01:52:55.871Z,12.00
2019-02-05T01:53:55.868Z,11.70
2019-02-05T01:54:55.882Z,12.80
2019-02-05T01:55:55.899Z,12.90
2019-02-05T01:56:55.912Z,12.60
2019-02-05T01:57:55.926Z,12.60
2019-02-05T01:58:55.937Z,13.00
2019-02-05T01:59:55.959Z,12.90
2019-02-05T02:00:55.963Z,13.80
2019-02-05T02:01:55.977Z,12.70
2019-02-05T02:02:55.991Z,12.50
2019-02-05T02:03:56.114Z,12.70
2019-02-05T02:04:56.019Z,13.30
2019-02-05T02:05:56.033Z,12.90
2019-02-05T02:06:56.045Z,14.10
2019-02-05T02:07:56.066Z,13.30
2019-02-05T02:08:56.072Z,13.80
2019-02-05T02:09:56.085Z,14.20
2019-02-05T02:10:56.099Z,13.20
2019-02-05T02:11:56.115Z,14.00
2019-02-05T02:12:56.126Z,14.90
2019-02-05T02:13:56.142Z,14.80
2019-02-05T02:14:56.154Z,15.00
2019-02-05T02:15:56.167Z,13.80
2019-02-05T02:16:56.189Z,14.40
2019-02-05T02:17:56.199Z,14.80
2019-02-05T02:18:56.211Z,14.40
2019-02-05T02:19:56.231Z,13.90
2019-02-05T02:20:56.238Z,13.60
2019-02-05T02:21:56.257Z,14.80
2019-02-05T02:22:56.262Z,14.20
2019-02-05T02:23:56.276Z,14.70
2019-02-05T02:24:56.290Z,14.40
2019-02-05T02:25:56.302Z,15.00
2019-02-05T02:26:56.317Z,14.30
2019-02-05T02:27:56.330Z,14.80
2019-02-05T02:28:56.349Z,14.10
2019-02-05T02:29:56.357Z,15.50
2019-02-05T02:30:56.370Z,15.50
2019-02-05T02:31:56.386Z,15.10
2019-02-05T02:32:56.399Z,15.50
2019-02-05T02:33:56.419Z,15.80
2019-02-05T02:34:56.425Z,16.60
2019-02-05T02:35:56.447Z,16.10
2019-02-05T02:36:56.451Z,14.80
2019-02-05T02:37:56.477Z,15.00
2019-02-05T02:38:56.480Z,15.10
2019-02-05T02:39:56.501Z,15.50
2019-02-05T02:40:56.509Z,15.50
2019-02-05T02:41:56.522Z,15.80
2019-02-05T02:42:56.539Z,15.50
2019-02-05T02:43:56.551Z,16.70
2019-02-05T02:44:56.560Z,15.70
2019-02-05T02:45:56.573Z,17.10
2019-02-05T02:46:56.587Z,16.20
2019-02-05T02:47:56.611Z,15.60
2019-02-05T02:48:56.622Z,16.70
2019-02-05T02:49:56.630Z,16.40
2019-02-05T02:50:56.641Z,16.00
2019-02-05T02:51:56.798Z,15.60
2019-02-05T02:52:56.677Z,17.20
2019-02-05T02:53:56.689Z,16.00
2019-02-05T02:54:56.696Z,16.10
2019-02-05T02:55:56.711Z,15.30
2019-02-05T02:57:04.583Z,15.20
2019-02-05T02:57:56.737Z,16.80
2019-02-05T02:58:56.750Z,16.20
2019-02-05T02:59:56.764Z,17.50
2019-02-05T03:00:56.783Z,16.70
2019-02-05T03:01:56.790Z,16.30
2019-02-05T03:02:56.807Z,16.30
2019-02-05T03:03:56.829Z,16.50
2019-02-05T03:04:56.831Z,16.20
2019-02-05T03:05:56.847Z,16.70
2019-02-05T03:06:56.860Z,17.20
2019-02-05T03:07:56.872Z,17.20
2019-02-05T03:08:56.891Z,17.00
2019-02-05T03:09:56.910Z,16.00
2019-02-05T03:10:56.917Z,17.80
2019-02-05T03:11:56.928Z,17.20
2019-02-05T03:12:56.940Z,16.70
2019-02-05T03:13:56.959Z,17.40
2019-02-05T03:14:56.970Z,16.70
2019-02-05T03:15:56.984Z,17.70
2019-02-05T03:16:56.995Z,15.90
2019-02-05T03:17:57.010Z,16.20
2019-02-05T03:18:57.024Z,16.00
2019-02-05T03:19:57.039Z,17.50
2019-02-05T03:20:57.052Z,17.30
2019-02-05T03:21:57.071Z,17.80
2019-02-05T03:22:57.081Z,16.40
2019-02-05T03:23:57.092Z,16.60
2019-02-05T03:24:57.103Z,16.20
2019-02-05T03:25:57.118Z,16.90
2019-02-05T03:26:57.131Z,17.20
2019-02-05T03:27:57.148Z,17.30
2019-02-05T03:28:57.162Z,17.90
2019-02-05T03:29:57.181Z,17.90
2019-02-05T03:30:57.192Z,17.80
2019-02-05T03:31:57.202Z,17.60
2019-02-05T03:32:57.216Z,17.10
2019-02-05T03:33:57.228Z,17.90
2019-02-05T03:34:57.243Z,17.40
2019-02-05T03:35:57.254Z,16.70
2019-02-05T03:36:57.274Z,17.20
2019-02-05T03:37:57.283Z,17.00
2019-02-05T03:38:57.302Z,16.80
2019-02-05T03:39:57.309Z,16.80
2019-02-05T03:40:57.327Z,17.90
2019-02-05T03:41:57.336Z,18.70
2019-02-05T03:42:57.373Z,17.80
2019-02-05T03:43:57.365Z,17.80
2019-02-05T03:44:57.384Z,18.00
2019-02-05T03:45:57.393Z,17.50
2019-02-05T03:46:57.405Z,17.20
2019-02-05T03:47:57.425Z,18.70
2019-02-05T03:48:57.440Z,18.10
2019-02-05T03:49:57.445Z,16.90
2019-02-05T03:50:57.460Z,17.00
2019-02-05T03:51:57.482Z,18.20
2019-02-05T03:52:57.486Z,18.50
2019-02-05T03:53:57.504Z,19.10
2019-02-05T03:54:57.517Z,18.10
2019-02-05T03:55:57.687Z,18.30
2019-02-05T03:56:57.546Z,17.90
2019-02-05T03:57:57.555Z,18.20
2019-02-05T03:58:57.574Z,18.50
2019-02-05T03:59:57.586Z,17.80
2019-02-05T04:00:57.596Z,19.00
2019-02-05T04:01:57.613Z,18.90
2019-02-05T04:02:57.625Z,19.10
2019-02-05T04:03:57.641Z,18.50
2019-02-05T04:04:57.653Z,19.70
2019-02-05T04:05:57.666Z,18.70
2019-02-05T04:06:57.679Z,19.90
2019-02-05T04:07:57.696Z,18.90
2019-02-05T04:08:57.712Z,19.20
2019-02-05T04:09:57.727Z,20.30
2019-02-05T04:10:57.735Z,19.50
2019-02-05T04:11:57.757Z,20.00
2019-02-05T04:12:57.762Z,20.70
2019-02-05T04:13:57.784Z,19.20
2019-02-05T04:14:57.793Z,20.50
2019-02-05T04:15:57.805Z,20.40
2019-02-05T04:16:57.821Z,19.60
2019-02-05T04:17:57.833Z,19.40
2019-02-05T04:18:57.855Z,21.10
2019-02-05T04:19:57.869Z,21.40
2019-02-05T04:20:57.875Z,21.00
2019-02-05T04:21:57.888Z,20.70
2019-02-05T04:22:57.904Z,20.40
2019-02-05T04:23:57.915Z,21.50
2019-02-05T04:24:57.933Z,20.90
2019-02-05T04:25:57.942Z,21.40
2019-02-05T04:26:57.972Z,23.30
2019-02-05T04:27:57.972Z,22.00
2019-02-05T04:28:57.991Z,20.90
2019-02-05T04:29:57.997Z,22.30
2019-02-05T04:30:58.020Z,21.40
2019-02-05T04:31:58.026Z,24.10
2019-02-05T04:32:58.039Z,22.00
2019-02-05T04:33:58.056Z,23.40
2019-02-05T04:34:58.068Z,24.40
2019-02-05T04:35:58.080Z,23.60
2019-02-05T04:36:58.094Z,24.80
2019-02-05T04:37:58.107Z,22.80
2019-02-05T04:38:58.127Z,24.30
2019-02-05T04:39:58.141Z,25.10
2019-02-05T04:40:58.151Z,23.90
2019-02-05T04:41:58.165Z,25.00
2019-02-05T04:42:58.185Z,24.90
2019-02-05T04:43:58.192Z,25.60
2019-02-05T04:44:58.205Z,27.00
2019-02-05T04:45:58.217Z,26.30
2019-02-05T04:46:58.235Z,26.10
2019-02-05T04:47:58.247Z,26.70
2019-02-05T04:48:58.260Z,26.50
2019-02-05T04:49:58.275Z,25.40
2019-02-05T04:50:58.286Z,27.30
2019-02-05T04:51:58.302Z,24.90
2019-02-05T04:52:58.322Z,28.20
2019-02-05T04:53:58.329Z,27.00
2019-02-05T04:54:58.346Z,26.70
2019-02-05T04:55:58.365Z,27.50
2019-02-05T04:56:58.372Z,27.10
2019-02-05T04:58:01.484Z,28.60
2019-02-05T04:58:58.439Z,29.20
2019-02-05T04:59:58.421Z,29.40
2019-02-05T05:00:58.425Z,29.70
2019-02-05T05:01:58.439Z,28.70
2019-02-05T05:02:58.452Z,29.20
2019-02-05T05:03:58.466Z,31.80
2019-02-05T05:04:58.782Z,30.70
2019-02-05T05:05:58.496Z,28.30
2019-02-05T05:06:58.519Z,30.80
2019-02-05T05:07:58.523Z,29.50
2019-02-05T05:08:58.536Z,30.40
2019-02-05T05:09:58.551Z,30.50
2019-02-05T05:10:58.576Z,31.70
2019-02-05T05:11:58.579Z,30.80
2019-02-05T05:12:58.593Z,31.20
2019-02-05T05:13:58.604Z,32.20
2019-02-05T05:14:58.621Z,30.40
2019-02-05T05:15:58.641Z,31.90
2019-02-05T05:16:58.645Z,32.10
2019-02-05T05:17:58.661Z,31.50
2019-02-05T05:18:58.673Z,33.10
2019-02-05T05:19:58.689Z,31.50
2019-02-05T05:20:58.702Z,32.20
2019-02-05T05:21:58.716Z,30.80
2019-02-05T05:22:58.735Z,34.50
2019-02-05T05:23:58.747Z,33.70
2019-02-05T05:24:58.757Z,32.60
2019-02-05T05:25:58.773Z,34.00
2019-02-05T05:26:58.787Z,33.80
2019-02-05T05:28:09.643Z,34.20
2019-02-05T05:28:58.814Z,33.30
2019-02-05T05:29:58.836Z,34.20
2019-02-05T05:30:58.844Z,34.10
2019-02-05T05:31:58.857Z,35.10
2019-02-05T05:32:58.871Z,34.20
2019-02-05T05:33:58.885Z,34.00
2019-02-05T05:34:58.899Z,34.40
2019-02-05T05:35:58.916Z,35.40
2019-02-05T05:36:59.060Z,35.20
2019-02-05T05:37:58.946Z,37.60
2019-02-05T05:38:58.962Z,35.50
2019-02-05T05:39:58.975Z,35.90
2019-02-05T05:40:58.981Z,34.90
2019-02-05T05:41:58.993Z,34.60
2019-02-05T05:42:59.008Z,34.30
2019-02-05T05:43:59.021Z,34.80
2019-02-05T05:44:59.043Z,34.80
2019-02-05T05:45:59.051Z,35.10
2019-02-05T05:46:59.067Z,35.90
2019-02-05T05:47:59.077Z,35.30
2019-02-05T05:48:59.092Z,34.70
2019-02-05T05:49:59.106Z,36.90
2019-02-05T05:50:59.121Z,35.50
2019-02-05T05:51:59.134Z,38.10
2019-02-05T05:52:59.149Z,36.50
2019-02-05T05:53:59.418Z,34.90
2019-02-05T05:54:59.173Z,34.20
2019-02-05T05:55:59.201Z,36.80
2019-02-05T05:56:59.201Z,34.20
2019-02-05T05:57:59.218Z,34.60
2019-02-05T05:58:59.230Z,35.70
2019-02-05T05:59:59.249Z,36.50
2019-02-05T06:00:59.314Z,36.50
2019-02-05T06:01:59.273Z,36.80
2019-02-05T06:02:59.588Z,34.40
2019-02-05T06:03:59.299Z,35.70
2019-02-05T06:04:59.313Z,37.50
2019-02-05T06:05:59.326Z,36.80
2019-02-05T06:06:59.343Z,36.90
2019-02-05T06:07:59.358Z,35.90
2019-02-05T06:08:59.373Z,36.10
2019-02-05T06:09:59.397Z,36.20
2019-02-05T06:10:59.407Z,39.00
2019-02-05T06:11:59.410Z,36.60
2019-02-05T06:12:59.427Z,35.90
2019-02-05T06:13:59.439Z,36.40
2019-02-05T06:14:59.452Z,37.80
2019-02-05T06:15:59.469Z,38.00
2019-02-05T06:16:59.488Z,38.80
2019-02-05T06:17:59.502Z,38.60
2019-02-05T06:18:59.513Z,36.90
2019-02-05T06:19:59.532Z,36.70
2019-02-05T06:20:59.540Z,37.20
2019-02-05T06:21:59.596Z,37.80
2019-02-05T06:22:59.573Z,37.00
2019-02-05T06:23:59.585Z,39.20
2019-02-05T06:24:59.594Z,36.80
2019-02-05T06:25:59.607Z,36.20
2019-02-05T06:26:59.619Z,36.60
2019-02-05T06:27:59.636Z,36.00
2019-02-05T06:28:59.650Z,34.20
2019-02-05T06:29:59.670Z,35.70
2019-02-05T06:30:59.679Z,35.20
2019-02-05T06:31:59.693Z,36.90
2019-02-05T06:32:59.713Z,37.10
2019-02-05T06:33:59.718Z,39.30
2019-02-05T06:34:59.731Z,36.30
2019-02-05T06:35:59.749Z,37.50
2019-02-05T06:36:59.761Z,35.50
2019-02-05T06:37:59.775Z,35.20
2019-02-05T06:38:59.798Z,40.60
2019-02-05T06:39:59.804Z,36.30
2019-02-05T06:40:59.966Z,37.60
2019-02-05T06:41:59.838Z,36.30
2019-02-05T06:42:59.851Z,36.00
2019-02-05T06:43:59.860Z,41.00
2019-02-05T06:44:59.874Z,35.70
2019-02-05T06:45:59.888Z,39.70
2019-02-05T06:46:59.901Z,39.80
2019-02-05T06:47:59.915Z,39.40
2019-02-05T06:48:59.934Z,38.20
2019-02-05T06:49:59.953Z,38.50
2019-02-05T06:50:59.956Z,38.40
2019-02-05T06:51:59.973Z,38.20
2019-02-05T06:52:59.987Z,35.40
2019-02-05T06:53:59.997Z,39.60
2019-02-05T06:55:00.014Z,39.40
2019-02-05T06:56:00.029Z,40.30
2019-02-05T06:57:00.039Z,41.50
2019-02-05T06:58:00.061Z,39.10
2019-02-05T06:59:00.067Z,41.10
2019-02-05T07:00:00.095Z,40.80
2019-02-05T07:01:00.098Z,40.80
2019-02-05T07:02:00.111Z,39.40
2019-02-05T07:03:00.134Z,38.90
2019-02-05T07:04:00.140Z,41.60
2019-02-05T07:05:00.198Z,40.50
2019-02-05T07:06:00.177Z,41.50
2019-02-05T07:07:00.190Z,41.70
2019-02-05T07:08:00.206Z,43.00
2019-02-05T07:09:00.219Z,41.70
2019-02-05T07:10:00.246Z,41.80
2019-02-05T07:11:00.250Z,43.00
2019-02-05T07:12:00.261Z,42.20
2019-02-05T07:13:00.277Z,42.20
2019-02-05T07:14:00.293Z,43.30
2019-02-05T07:15:00.388Z,42.60
2019-02-05T07:16:00.319Z,41.20
2019-02-05T07:17:00.331Z,41.10
2019-02-05T07:18:00.343Z,40.00
2019-02-05T07:19:00.364Z,43.10
2019-02-05T07:20:00.532Z,41.90
2019-02-05T07:21:00.388Z,43.00
2019-02-05T07:22:00.399Z,42.90
2019-02-05T07:23:00.466Z,40.90
2019-02-05T07:24:00.430Z,43.50
2019-02-05T07:25:00.441Z,43.10
2019-02-05T07:26:00.457Z,44.20
2019-02-05T07:27:00.477Z,42.20
2019-02-05T07:28:00.486Z,43.30
2019-02-05T07:29:02.150Z,41.40
2019-02-05T07:30:00.514Z,42.50
2019-02-05T07:31:00.526Z,43.00
2019-02-05T07:32:00.549Z,43.00
2019-02-05T07:33:00.554Z,40.10
2019-02-05T07:34:00.571Z,41.20
2019-02-05T07:35:00.586Z,42.00
2019-02-05T07:36:00.597Z,40.50
2019-02-05T07:37:00.611Z,37.50
2019-02-05T07:38:00.633Z,39.90
2019-02-05T07:39:00.647Z,39.00
2019-02-05T07:40:00.653Z,38.90
2019-02-05T07:41:00.784Z,38.30
2019-02-05T07:42:00.684Z,37.90
2019-02-05T07:43:00.696Z,38.30
2019-02-05T07:44:00.709Z,39.00
2019-02-05T07:45:00.725Z,37.70
2019-02-05T07:46:00.737Z,43.60
2019-02-05T07:47:00.752Z,35.50
2019-02-05T07:48:00.892Z,36.60
2019-02-05T07:49:00.786Z,36.40
2019-02-05T07:50:00.794Z,35.90
2019-02-05T07:51:00.810Z,36.90
2019-02-05T07:52:00.827Z,36.70
2019-02-05T07:53:00.838Z,35.50
2019-02-05T07:54:00.850Z,36.80
2019-02-05T07:55:00.865Z,37.60
2019-02-05T07:56:00.878Z,36.70
2019-02-05T07:57:00.893Z,36.50
2019-02-05T07:58:00.913Z,36.80
2019-02-05T07:59:09.937Z,36.50
2019-02-05T08:00:01.060Z,39.40
2019-02-05T08:01:00.951Z,38.20
2019-02-05T08:02:00.972Z,36.90
2019-02-05T08:03:00.979Z,35.40
2019-02-05T08:04:01.143Z,35.10
2019-02-05T08:05:01.381Z,33.90
2019-02-05T08:06:01.026Z,33.60
2019-02-05T08:07:01.037Z,33.10
2019-02-05T08:08:01.057Z,32.50
2019-02-05T08:09:01.064Z,35.00
2019-02-05T08:10:01.085Z,34.70
2019-02-05T08:11:01.104Z,33.90
2019-02-05T08:12:01.108Z,33.60
2019-02-05T08:13:01.123Z,33.70
2019-02-05T08:14:01.132Z,33.70
2019-02-05T08:15:01.149Z,31.60
2019-02-05T08:16:01.164Z,30.70
2019-02-05T08:17:01.176Z,31.90
2019-02-05T08:18:01.198Z,32.90
2019-02-05T08:19:01.209Z,32.10
2019-02-05T08:20:01.220Z,34.20
2019-02-05T08:21:01.239Z,31.50
2019-02-05T08:22:01.254Z,30.50
2019-02-05T08:23:01.260Z,31.80
2019-02-05T08:24:01.282Z,30.50
2019-02-05T08:25:01.286Z,31.70
2019-02-05T08:26:01.303Z,32.10
2019-02-05T08:27:01.319Z,31.00
2019-02-05T08:28:01.339Z,29.00
2019-02-05T08:29:01.351Z,31.40
2019-02-05T08:30:01.397Z,31.20
2019-02-05T08:31:01.378Z,33.00
2019-02-05T08:32:01.386Z,33.60
2019-02-05T08:33:01.411Z,30.80
2019-02-05T08:34:03.374Z,32.20
2019-02-05T08:35:01.438Z,33.10
2019-02-05T08:36:01.448Z,33.40
2019-02-05T08:37:01.458Z,32.60
2019-02-05T08:38:01.560Z,32.40
2019-02-05T08:39:01.487Z,32.60
2019-02-05T08:40:01.502Z,32.70
2019-02-05T08:41:01.517Z,32.40
2019-02-05T08:42:01.529Z,32.40
2019-02-05T08:43:01.545Z,31.60
2019-02-05T08:44:01.560Z,33.00
2019-02-05T08:45:01.582Z,34.10
2019-02-05T08:46:01.591Z,34.10
2019-02-05T08:47:01.603Z,33.80
2019-02-05T08:48:01.614Z,32.30
2019-02-05T08:49:01.728Z,30.50
2019-02-05T08:50:01.648Z,33.40
2019-02-05T08:51:01.666Z,30.80
2019-02-05T08:52:01.671Z,31.90
2019-02-05T08:53:01.687Z,32.00
2019-02-05T08:54:01.700Z,29.40
2019-02-05T08:55:01.818Z,31.80
2019-02-05T08:56:01.730Z,29.30
2019-02-05T08:57:01.743Z,30.70
2019-02-05T08:58:01.757Z,29.90
2019-02-05T08:59:01.781Z,30.80
2019-02-05T09:00:01.791Z,28.40
2019-02-05T09:01:01.805Z,29.70
2019-02-05T09:02:01.822Z,29.80
2019-02-05T09:03:01.831Z,29.90
2019-02-05T09:04:01.844Z,29.90
2019-02-05T09:05:01.865Z,30.90
2019-02-05T09:06:01.880Z,31.20
2019-02-05T09:07:01.890Z,29.30
2019-02-05T09:08:01.903Z,30.10
2019-02-05T09:09:01.917Z,31.00
2019-02-05T09:10:01.937Z,29.50
2019-02-05T09:11:01.945Z,27.80
2019-02-05T09:12:01.962Z,29.80
2019-02-05T09:13:01.982Z,30.90
2019-02-05T09:14:10.509Z,28.20
2019-02-05T09:15:02.004Z,28.60
2019-02-05T09:16:02.023Z,29.60
2019-02-05T09:17:02.032Z,29.70
2019-02-05T09:18:02.047Z,28.00
2019-02-05T09:19:02.059Z,34.30
2019-02-05T09:20:02.076Z,28.10
2019-02-05T09:21:02.092Z,29.60
2019-02-05T09:22:02.104Z,27.70
2019-02-05T09:23:02.116Z,29.30
2019-02-05T09:24:02.132Z,28.00
2019-02-05T09:25:02.146Z,27.70
2019-02-05T09:26:02.164Z,25.80
2019-02-05T09:27:02.178Z,27.20
2019-02-05T09:28:02.190Z,26.80
2019-02-05T09:29:02.204Z,26.60
2019-02-05T09:30:02.216Z,27.80
2019-02-05T09:31:02.239Z,28.30
2019-02-05T09:32:02.249Z,26.50
2019-02-05T09:33:02.263Z,27.10
2019-02-05T09:34:02.276Z,28.70
2019-02-05T09:35:02.291Z,30.20
2019-02-05T09:36:02.303Z,30.00
2019-02-05T09:37:02.317Z,28.50
2019-02-05T09:38:02.332Z,27.80
2019-02-05T09:39:02.351Z,27.30
2019-02-05T09:40:02.362Z,26.40
2019-02-05T09:41:02.374Z,27.40
2019-02-05T09:42:02.645Z,27.50
2019-02-05T09:43:02.405Z,27.60
2019-02-05T09:44:02.418Z,26.50
2019-02-05T09:45:02.433Z,29.00
2019-02-05T09:46:02.452Z,29.40
2019-02-05T09:47:02.469Z,29.30
2019-02-05T09:48:02.477Z,28.60
2019-02-05T09:49:02.489Z,28.80
2019-02-05T09:50:02.511Z,27.40
2019-02-05T09:51:02.521Z,28.60
2019-02-05T09:52:02.535Z,28.50
2019-02-05T09:53:02.545Z,29.70
2019-02-05T09:54:02.565Z,28.40
2019-02-05T09:55:02.577Z,26.40
2019-02-05T09:56:02.591Z,25.90
2019-02-05T09:57:02.604Z,27.20
2019-02-05T09:58:02.626Z,26.80
2019-02-05T09:59:02.634Z,25.80
2019-02-05T10:00:02.655Z,24.60
2019-02-05T10:01:02.756Z,22.90
2019-02-05T10:02:02.679Z,20.40
2019-02-05T10:03:02.691Z,21.40
2019-02-05T10:04:02.708Z,20.90
2019-02-05T10:05:02.720Z,19.70
2019-02-05T10:06:02.735Z,20.70
2019-02-05T10:07:02.757Z,20.60
2019-02-05T10:08:02.766Z,21.20
2019-02-05T10:09:02.788Z,20.50
2019-02-05T10:10:02.793Z,19.70
2019-02-05T10:11:02.822Z,19.10
2019-02-05T10:12:02.825Z,19.00
2019-02-05T10:13:02.838Z,19.60
2019-02-05T10:14:02.852Z,19.30
2019-02-05T10:15:02.864Z,18.40
2019-02-05T10:16:02.881Z,18.70
2019-02-05T10:17:02.893Z,19.00
2019-02-05T10:18:02.907Z,18.50
2019-02-05T10:19:02.924Z,18.40
2019-02-05T10:20:02.939Z,18.80
2019-02-05T10:21:02.952Z,17.40
2019-02-05T10:22:02.965Z,17.90
2019-02-05T10:23:02.982Z,18.00
2019-02-05T10:24:03.001Z,18.20
2019-02-05T10:25:03.009Z,17.70
2019-02-05T10:26:03.023Z,17.30
2019-02-05T10:27:03.038Z,16.90
2019-02-05T10:28:03.064Z,17.00
2019-02-05T10:29:03.067Z,16.30
2019-02-05T10:30:03.085Z,16.80
2019-02-05T10:31:03.102Z,15.20
2019-02-05T10:32:03.263Z,16.40
2019-02-05T10:33:03.279Z,16.50
2019-02-05T10:34:03.140Z,15.20
2019-02-05T10:35:03.155Z,16.00
2019-02-05T10:36:03.281Z,15.20
2019-02-05T10:37:03.186Z,15.30
2019-02-05T10:38:03.200Z,13.70
2019-02-05T10:39:03.216Z,14.70
2019-02-05T10:40:03.231Z,13.50
2019-02-05T10:41:03.247Z,14.80
2019-02-05T10:42:03.264Z,14.40
2019-02-05T10:43:03.275Z,14.50
2019-02-05T10:44:03.291Z,14.30
2019-02-05T10:45:03.304Z,13.90
2019-02-05T10:46:03.338Z,15.50
2019-02-05T10:47:03.334Z,14.80
2019-02-05T10:48:03.350Z,15.10
2019-02-05T10:49:03.461Z,16.00
2019-02-05T10:50:03.375Z,15.90
2019-02-05T10:51:03.390Z,15.10
2019-02-05T10:52:03.405Z,16.00
2019-02-05T10:53:03.427Z,15.60
2019-02-05T10:54:03.443Z,15.30
2019-02-05T10:55:03.453Z,16.40
2019-02-05T10:56:03.463Z,17.40
2019-02-05T10:57:03.480Z,16.20
2019-02-05T10:58:03.495Z,16.70
2019-02-05T10:59:03.511Z,16.10
2019-02-05T11:00:08.967Z,18.50
2019-02-05T11:01:03.539Z,17.10
2019-02-05T11:02:03.554Z,16.70
2019-02-05T11:03:03.669Z,15.80
2019-02-05T11:04:03.585Z,17.20
2019-02-05T11:05:03.596Z,17.10
2019-02-05T11:06:03.611Z,18.30
2019-02-05T11:07:03.629Z,18.70
2019-02-05T11:08:03.646Z,18.50
2019-02-05T11:09:03.655Z,18.90
2019-02-05T11:10:03.672Z,18.80
2019-02-05T11:11:03.685Z,18.20
2019-02-05T11:12:03.701Z,18.30
2019-02-05T11:13:03.713Z,17.80
2019-02-05T11:14:03.728Z,17.60
2019-02-05T11:15:03.744Z,17.60
2019-02-05T11:16:03.757Z,17.50
2019-02-05T11:17:03.774Z,18.00
2019-02-05T11:18:03.788Z,17.90
2019-02-05T11:19:03.806Z,17.90
2019-02-05T11:20:03.816Z,18.50
2019-02-05T11:21:04.476Z,18.80
2019-02-05T11:22:03.843Z,18.50
2019-02-05T11:23:03.862Z,18.40
2019-02-05T11:24:03.891Z,18.70
2019-02-05T11:25:03.901Z,17.40
2019-02-05T11:26:03.904Z,16.60
2019-02-05T11:27:03.918Z,17.50
2019-02-05T11:28:03.935Z,19.40
2019-02-05T11:29:03.948Z,17.30
2019-02-05T11:30:03.963Z,18.40
2019-02-05T11:31:03.981Z,17.40
2019-02-05T11:32:03.994Z,16.40
2019-02-05T11:33:04.006Z,16.20
2019-02-05T11:34:04.022Z,17.20
2019-02-05T11:35:04.037Z,16.60
2019-02-05T11:36:04.050Z,17.90
2019-02-05T11:37:04.144Z,17.20
2019-02-05T11:38:04.080Z,17.80
2019-02-05T11:39:04.093Z,17.50
2019-02-05T11:40:04.108Z,18.30
2019-02-05T11:41:04.128Z,17.40
2019-02-05T11:42:04.136Z,16.30
2019-02-05T11:43:04.153Z,16.80
2019-02-05T11:44:04.170Z,17.30
2019-02-05T11:45:04.183Z,17.20
2019-02-05T11:46:04.194Z,18.00
2019-02-05T11:47:04.211Z,17.20
2019-02-05T11:48:04.226Z,16.80
2019-02-05T11:49:04.245Z,17.80
2019-02-05T11:50:04.254Z,17.10
2019-02-05T11:51:04.268Z,17.20
2019-02-05T11:52:04.351Z,16.00
2019-02-05T11:53:04.295Z,16.50
2019-02-05T11:54:04.310Z,18.20
2019-02-05T11:55:04.327Z,17.40
2019-02-05T11:56:04.346Z,17.40
2019-02-05T11:57:04.357Z,16.20
2019-02-05T11:58:04.369Z,16.50
2019-02-05T11:59:04.390Z,17.40
2019-02-05T12:00:04.403Z,17.70
2019-02-05T12:01:04.411Z,16.70
2019-02-05T12:02:04.427Z,17.10
2019-02-05T12:03:04.445Z,17.90
2019-02-05T12:04:04.458Z,19.40
2019-02-05T12:05:04.470Z,19.30
2019-02-05T12:06:04.485Z,19.20
2019-02-05T12:07:04.552Z,18.70
2019-02-05T12:08:04.816Z,18.80
2019-02-05T12:09:04.541Z,19.50
2019-02-05T12:10:04.541Z,18.40
2019-02-05T12:11:04.579Z,17.30
2019-02-05T12:12:04.573Z,16.70
2019-02-05T12:13:04.584Z,17.60
2019-02-05T12:14:04.606Z,19.20
2019-02-05T12:15:04.615Z,16.80
2019-02-05T12:16:04.631Z,17.60
2019-02-05T12:17:04.641Z,18.20
2019-02-05T12:18:04.718Z,19.10
2019-02-05T12:19:04.674Z,17.70
2019-02-05T12:20:04.693Z,17.20
2019-02-05T12:21:04.699Z,18.20
2019-02-05T12:22:04.720Z,16.90
2019-02-05T12:23:04.732Z,17.70
2019-02-05T12:24:04.744Z,18.60
2019-02-05T12:25:04.760Z,18.70
2019-02-05T12:26:04.778Z,16.50
2019-02-05T12:27:04.790Z,18.70
2019-02-05T12:28:04.809Z,17.20
2019-02-05T12:29:04.817Z,17.00
2019-02-05T12:30:04.836Z,17.40
2019-02-05T12:31:04.847Z,17.70
2019-02-05T12:32:04.870Z,19.00
2019-02-05T12:33:04.876Z,16.60
2019-02-05T12:34:04.898Z,17.20
2019-02-05T12:35:04.913Z,18.30
2019-02-05T12:36:04.926Z,17.40
2019-02-05T12:37:04.936Z,16.10
2019-02-05T12:38:04.955Z,17.00
2019-02-05T12:39:04.966Z,17.00
2019-02-05T12:40:04.985Z,16.50
2019-02-05T12:41:04.991Z,16.80
2019-02-05T12:42:05.010Z,16.20
2019-02-05T12:43:05.025Z,17.30
2019-02-05T12:44:05.040Z,16.80
2019-02-05T12:45:05.055Z,16.90
2019-02-05T12:46:05.066Z,17.00
2019-02-05T12:47:05.089Z,16.20
2019-02-05T12:48:05.097Z,15.60
2019-02-05T12:49:05.110Z,16.00
2019-02-05T12:50:05.125Z,15.60
2019-02-05T12:51:05.149Z,17.30
2019-02-05T12:52:05.162Z,15.70
2019-02-05T12:53:05.301Z,16.70
2019-02-05T12:54:05.189Z,15.90
2019-02-05T12:55:13.278Z,16.20